createdAt,value
2022-07-25T00:01:05.509Z,9.90
2022-07-25T00:03:34.815Z,9.00
2022-07-25T00:06:02.510Z,10.00
2022-07-25T00:08:30.197Z,10.10
2022-07-25T00:10:59.263Z,9.10
2022-07-25T00:13:26.945Z,9.43
2022-07-25T00:15:55.788Z,9.03
2022-07-25T00:18:23.489Z,9.83
2022-07-25T00:20:51.270Z,9.50
2022-07-25T00:23:18.988Z,9.33
2022-07-25T00:25:46.755Z,9.30
2022-07-25T00:28:15.726Z,10.03
2022-07-25T00:30:43.413Z,10.07
2022-07-25T00:33:11.090Z,9.97
2022-07-25T00:35:38.810Z,10.00
2022-07-25T00:38:06.543Z,10.73
2022-07-25T00:40:34.876Z,10.40
2022-07-25T00:43:03.630Z,9.63
2022-07-25T00:45:32.658Z,10.53
2022-07-25T00:48:00.402Z,11.77
2022-07-25T00:50:28.126Z,11.27
2022-07-25T00:52:56.492Z,12.57
2022-07-25T00:55:24.801Z,12.00
2022-07-25T00:57:53.678Z,11.63
2022-07-25T01:00:21.509Z,11.90
2022-07-25T01:02:50.920Z,11.67
2022-07-25T01:05:18.800Z,11.47
2022-07-25T01:07:48.314Z,13.37
2022-07-25T01:10:16.067Z,11.93
2022-07-25T01:12:49.755Z,10.90
2022-07-25T01:15:18.592Z,10.83
2022-07-25T01:17:46.607Z,11.50
2022-07-25T01:20:17.058Z,10.03
2022-07-25T01:22:45.048Z,11.83
2022-07-25T01:25:13.635Z,11.17
2022-07-25T01:27:42.278Z,10.87
2022-07-25T01:30:13.260Z,12.50
2022-07-25T01:32:41.802Z,12.17
2022-07-25T01:35:11.009Z,14.47
2022-07-25T01:37:40.105Z,11.10
2022-07-25T01:40:13.668Z,13.17
2022-07-25T01:42:41.428Z,11.30
2022-07-25T01:45:10.329Z,11.60
2022-07-25T01:47:38.591Z,10.80
2022-07-25T01:50:09.157Z,11.03
2022-07-25T01:52:37.486Z,11.53
2022-07-25T01:55:08.146Z,12.03
2022-07-25T01:57:36.319Z,10.97
2022-07-25T02:00:05.318Z,12.07
2022-07-25T02:02:39.902Z,10.73
2022-07-25T02:05:08.637Z,11.47
2022-07-25T02:07:37.047Z,11.80
2022-07-25T02:10:08.382Z,11.63
2022-07-25T02:12:36.248Z,11.50
2022-07-25T02:15:03.999Z,13.00
2022-07-25T02:17:31.695Z,12.70
2022-07-25T02:19:59.382Z,12.77
2022-07-25T02:22:27.065Z,12.30
2022-07-25T02:24:54.795Z,11.60
2022-07-25T02:27:23.850Z,11.90
2022-07-25T02:29:51.523Z,12.27
2022-07-25T02:32:19.169Z,12.80
2022-07-25T02:34:46.812Z,12.47
2022-07-25T02:37:14.851Z,12.40
2022-07-25T02:39:42.619Z,13.00
2022-07-25T02:42:10.297Z,13.00
2022-07-25T02:44:39.326Z,12.53
2022-07-25T02:47:07.170Z,12.70
2022-07-25T02:49:34.928Z,12.07
2022-07-25T02:52:02.624Z,13.10
2022-07-25T02:54:30.321Z,12.67
2022-07-25T02:56:58.070Z,13.40
2022-07-25T02:59:25.804Z,12.87
2022-07-25T03:02:01.451Z,11.73
2022-07-25T03:04:31.027Z,12.90
2022-07-25T03:06:58.803Z,13.10
2022-07-25T03:09:26.548Z,12.37
2022-07-25T03:11:54.236Z,11.90
2022-07-25T03:14:21.941Z,12.37
2022-07-25T03:16:49.637Z,13.40
2022-07-25T03:19:18.645Z,12.73
2022-07-25T03:21:46.384Z,13.10
2022-07-25T03:24:14.104Z,14.70
2022-07-25T03:26:41.802Z,12.90
2022-07-25T03:29:09.534Z,12.60
2022-07-25T03:31:37.347Z,11.93
2022-07-25T03:34:06.086Z,13.13
2022-07-25T03:36:35.617Z,14.07
2022-07-25T03:39:05.559Z,13.57
2022-07-25T03:41:33.478Z,12.63
2022-07-25T03:44:01.202Z,14.93
2022-07-25T03:46:29.026Z,14.60
2022-07-25T03:48:56.881Z,14.43
2022-07-25T22:57:07.856Z,5.30
2022-07-25T22:59:35.560Z,3.90
2022-07-25T23:02:03.256Z,3.80
2022-07-25T23:04:31.045Z,3.60
2022-07-25T23:06:58.799Z,4.40
2022-07-25T23:09:36.451Z,4.17
2022-07-25T23:12:04.902Z,3.47
2022-07-25T23:14:33.985Z,4.23
2022-07-25T23:17:19.983Z,5.10
2022-07-25T23:19:49.230Z,4.50
2022-07-25T23:22:17.525Z,3.70
2022-07-25T23:24:45.243Z,5.60
2022-07-25T23:27:13.134Z,5.70
2022-07-25T23:29:42.306Z,4.70
2022-07-25T23:32:10.442Z,5.37
2022-07-25T23:34:38.095Z,4.10
2022-07-25T23:37:05.781Z,4.30
2022-07-25T23:39:33.646Z,4.43
2022-07-25T23:42:01.746Z,4.73
2022-07-25T23:44:29.607Z,3.90
2022-07-25T23:46:59.837Z,4.30
2022-07-25T23:49:29.301Z,3.50
2022-07-25T23:51:57.503Z,4.03
2022-07-25T23:54:25.728Z,4.10
2022-07-25T23:56:53.734Z,3.97
2022-07-25T23:59:21.437Z,4.40
